createdAt,value
2019-03-26T00:01:20.347Z,4.07
2019-03-26T00:03:49.988Z,5.30
2019-03-26T00:06:19.566Z,4.37
2019-03-26T00:08:49.220Z,4.97
2019-03-26T00:11:18.816Z,4.67
2019-03-26T00:13:48.459Z,4.70
2019-03-26T00:16:18.028Z,4.07
2019-03-26T00:18:47.654Z,4.87
2019-03-26T00:21:17.239Z,4.70
2019-03-26T00:23:46.804Z,4.23
2019-03-26T00:26:16.349Z,3.90
2019-03-26T00:28:45.967Z,3.80
2019-03-26T00:31:15.484Z,3.57
2019-03-26T00:33:44.931Z,3.83
2019-03-26T00:36:14.546Z,3.77
2019-03-26T00:38:44.231Z,2.90
2019-03-26T00:41:13.929Z,3.67
2019-03-26T00:43:43.521Z,2.90
2019-03-26T00:46:13.218Z,3.17
2019-03-26T00:48:42.816Z,3.20
2019-03-26T00:51:12.453Z,3.43
2019-03-26T00:53:42.078Z,3.00
2019-03-26T00:56:11.672Z,4.07
2019-03-26T00:58:41.305Z,3.37
2019-03-26T01:01:10.972Z,2.37
2019-03-26T01:03:40.572Z,2.57
2019-03-26T01:06:10.209Z,2.70
2019-03-26T01:08:39.824Z,3.33
2019-03-26T01:11:09.523Z,3.07
2019-03-26T01:13:39.012Z,3.53
2019-03-26T01:16:08.683Z,2.87
2019-03-26T01:18:38.203Z,2.27
2019-03-26T01:21:07.751Z,2.50
2019-03-26T01:23:37.415Z,2.73
2019-03-26T01:26:07.070Z,3.17
2019-03-26T01:28:36.804Z,3.77
2019-03-26T01:31:06.511Z,2.73
2019-03-26T01:33:36.115Z,2.80
2019-03-26T01:36:05.769Z,2.70
2019-03-26T01:38:40.024Z,2.83
2019-03-26T01:41:09.841Z,2.80
2019-03-26T01:43:39.467Z,2.77
2019-03-26T01:46:09.109Z,2.83
2019-03-26T01:48:38.727Z,2.43
2019-03-26T01:51:08.383Z,2.83
2019-03-26T01:53:38.145Z,2.40
2019-03-26T01:56:07.736Z,3.20
2019-03-26T01:58:37.365Z,2.33
2019-03-26T02:01:06.935Z,2.67
2019-03-26T02:03:36.589Z,2.70
2019-03-26T02:06:06.170Z,2.43
2019-03-26T02:08:35.859Z,2.67
2019-03-26T02:11:05.415Z,2.93
2019-03-26T02:13:50.110Z,2.80
2019-03-26T02:16:19.836Z,3.07
2019-03-26T02:18:49.472Z,3.00
2019-03-26T02:21:19.069Z,2.90
2019-03-26T02:23:48.723Z,3.37
2019-03-26T02:26:18.358Z,2.50
2019-03-26T02:28:47.962Z,2.40
2019-03-26T02:31:17.717Z,2.80
2019-03-26T02:33:50.029Z,2.80
2019-03-26T02:36:19.644Z,2.80
2019-03-26T02:39:00.264Z,2.23
2019-03-26T02:41:29.360Z,3.33
2019-03-26T02:43:58.913Z,2.63
2019-03-26T02:46:28.446Z,2.33
2019-03-26T02:48:58.098Z,2.47
2019-03-26T02:51:27.868Z,2.40
2019-03-26T02:53:57.515Z,2.20
2019-03-26T02:56:27.191Z,2.53
2019-03-26T02:58:56.861Z,2.60
2019-03-26T03:01:26.756Z,2.90
2019-03-26T03:03:56.336Z,2.73
2019-03-26T03:06:25.993Z,3.17
2019-03-26T03:08:55.620Z,3.00
2019-03-26T03:11:25.243Z,2.83
2019-03-26T03:13:54.811Z,3.00
2019-03-26T03:16:24.487Z,3.07
2019-03-26T03:18:54.104Z,3.53
2019-03-26T03:21:23.688Z,2.43
2019-03-26T03:23:53.301Z,2.53
2019-03-26T03:26:22.929Z,2.40
2019-03-26T03:28:52.585Z,3.13
2019-03-26T03:31:22.217Z,2.27
2019-03-26T03:33:51.795Z,2.53
2019-03-26T03:36:21.478Z,2.80
2019-03-26T03:38:51.085Z,1.90
2019-03-26T03:41:20.707Z,2.60
2019-03-26T03:43:50.354Z,2.10
2019-03-26T03:46:19.971Z,2.40
2019-03-26T03:48:49.588Z,2.07
2019-03-26T03:51:19.319Z,2.43
2019-03-26T03:53:48.921Z,2.33
2019-03-26T03:56:18.554Z,2.23
2019-03-26T03:58:48.405Z,2.40
2019-03-26T04:01:18.052Z,2.10
2019-03-26T04:03:47.665Z,1.90
2019-03-26T04:06:17.380Z,2.10
2019-03-26T04:08:46.951Z,2.27
2019-03-26T04:11:16.605Z,2.23
2019-03-26T04:13:46.313Z,1.87
2019-03-26T04:16:15.925Z,1.90
2019-03-26T04:18:45.568Z,1.77
2019-03-26T04:21:15.293Z,2.47
2019-03-26T04:23:44.952Z,2.03
2019-03-26T04:26:14.649Z,2.33
2019-03-26T04:28:44.258Z,2.50
2019-03-26T04:31:13.902Z,2.93
2019-03-26T04:33:43.591Z,3.10
2019-03-26T04:36:25.342Z,1.90
2019-03-26T04:38:44.714Z,2.37
2019-03-26T04:41:14.452Z,2.57
2019-03-26T04:43:44.186Z,2.67
2019-03-26T04:46:13.896Z,2.33
2019-03-26T04:48:43.646Z,2.13
2019-03-26T04:51:13.386Z,2.53
2019-03-26T04:53:43.196Z,2.10
2019-03-26T04:56:12.887Z,1.90
2019-03-26T04:58:43.943Z,2.10
2019-03-26T05:01:13.808Z,2.17
2019-03-26T05:03:43.553Z,2.57
2019-03-26T05:06:13.149Z,2.90
2019-03-26T05:08:42.795Z,2.10
2019-03-26T05:11:12.430Z,2.40
2019-03-26T05:13:42.159Z,1.97
2019-03-26T05:16:11.832Z,2.33
2019-03-26T05:18:41.537Z,2.73
2019-03-26T05:21:11.177Z,2.50
2019-03-26T05:23:40.859Z,2.40
2019-03-26T05:26:10.625Z,2.70
2019-03-26T05:28:40.449Z,2.13
2019-03-26T05:31:10.115Z,2.63
2019-03-26T05:33:39.873Z,1.87
2019-03-26T05:36:09.672Z,2.50
2019-03-26T05:38:39.665Z,2.40
2019-03-26T05:41:10.615Z,2.73
2019-03-26T05:43:40.692Z,2.70
2019-03-26T05:46:10.398Z,2.33
2019-03-26T05:48:40.150Z,2.63
2019-03-26T05:51:09.869Z,2.33
2019-03-26T05:53:39.560Z,3.20
2019-03-26T05:56:09.312Z,2.47
2019-03-26T05:58:39.005Z,2.33
2019-03-26T06:01:08.685Z,1.77
2019-03-26T06:03:38.397Z,2.17
2019-03-26T06:06:08.098Z,2.37
2019-03-26T06:08:38.043Z,2.53
2019-03-26T06:11:07.747Z,1.70
2019-03-26T06:13:37.476Z,2.80
2019-03-26T06:16:07.246Z,2.20
2019-03-26T06:18:37.107Z,3.37
2019-03-26T06:21:06.858Z,2.77
2019-03-26T06:23:36.592Z,2.40
2019-03-26T06:26:09.467Z,2.43
2019-03-26T06:28:39.438Z,2.87
2019-03-26T06:31:09.390Z,2.70
2019-03-26T06:33:39.105Z,2.33
2019-03-26T06:36:08.952Z,2.50
2019-03-26T06:38:38.920Z,2.20
2019-03-26T06:41:08.706Z,2.70
2019-03-26T06:43:38.497Z,2.67
2019-03-26T06:46:08.297Z,2.90
2019-03-26T06:48:37.962Z,3.10
2019-03-26T06:51:07.702Z,3.30
2019-03-26T06:53:37.368Z,3.10
2019-03-26T06:56:07.139Z,3.93
2019-03-26T06:58:36.929Z,4.57
2019-03-26T07:01:06.671Z,4.50
2019-03-26T07:03:36.421Z,4.50
2019-03-26T07:06:06.083Z,4.17
2019-03-26T07:08:35.812Z,3.87
2019-03-26T07:11:05.743Z,4.33
2019-03-26T07:13:35.556Z,4.17
2019-03-26T07:16:05.584Z,3.97
2019-03-26T07:18:35.425Z,3.67
2019-03-26T07:21:05.367Z,5.10
2019-03-26T07:23:35.205Z,5.63
2019-03-26T07:26:04.963Z,4.27
2019-03-26T07:28:34.666Z,3.83
2019-03-26T07:31:04.426Z,3.30
2019-03-26T07:33:34.057Z,3.70
2019-03-26T07:36:03.899Z,3.10
2019-03-26T07:38:33.564Z,3.73
2019-03-26T07:41:03.195Z,3.57
2019-03-26T07:43:33.032Z,2.70
2019-03-26T07:46:02.843Z,3.40
2019-03-26T07:48:32.476Z,3.43
2019-03-26T07:51:02.102Z,3.07
2019-03-26T07:53:31.697Z,3.57
2019-03-26T07:56:01.398Z,3.63
2019-03-26T07:58:33.312Z,3.20
2019-03-26T08:01:03.132Z,3.20
2019-03-26T08:03:32.798Z,3.27
2019-03-26T08:06:02.554Z,4.30
2019-03-26T08:08:32.394Z,3.10
2019-03-26T08:11:03.217Z,3.60
2019-03-26T08:13:32.911Z,2.83
2019-03-26T08:16:02.536Z,2.83
2019-03-26T08:18:33.144Z,4.20
2019-03-26T08:21:02.808Z,3.40
2019-03-26T08:23:32.427Z,2.37
2019-03-26T08:26:02.062Z,3.50
2019-03-26T08:28:31.653Z,3.27
2019-03-26T08:31:01.278Z,3.97
2019-03-26T08:33:31.001Z,4.57
2019-03-26T08:36:00.668Z,3.57
2019-03-26T08:38:33.369Z,6.37
2019-03-26T08:41:01.755Z,3.33
2019-03-26T08:43:31.368Z,3.93
2019-03-26T08:46:00.969Z,4.57
2019-03-26T08:48:30.659Z,2.77
2019-03-26T08:51:00.370Z,3.17
2019-03-26T08:53:30.027Z,2.73
2019-03-26T08:55:59.737Z,3.57
2019-03-26T08:58:29.402Z,3.27
2019-03-26T09:00:59.079Z,3.83
2019-03-26T09:03:28.722Z,3.90
2019-03-26T09:05:58.368Z,3.40
2019-03-26T09:08:27.982Z,3.40
2019-03-26T09:10:57.565Z,3.20
2019-03-26T09:13:27.089Z,2.47
2019-03-26T09:15:56.667Z,3.13
2019-03-26T09:18:26.273Z,2.60
2019-03-26T09:20:55.839Z,2.97
2019-03-26T09:23:25.546Z,3.10
2019-03-26T09:25:55.205Z,4.13
2019-03-26T09:28:24.973Z,4.63
2019-03-26T09:30:57.153Z,4.63
2019-03-26T09:33:27.819Z,3.83
2019-03-26T09:35:57.572Z,4.23
2019-03-26T09:38:38.494Z,4.03
2019-03-26T09:40:58.871Z,4.43
2019-03-26T09:43:28.553Z,5.00
2019-03-26T09:45:58.300Z,5.70
2019-03-26T09:48:27.991Z,6.47
2019-03-26T09:51:00.157Z,7.23
2019-03-26T09:53:29.841Z,7.20
2019-03-26T09:55:59.489Z,7.10
2019-03-26T09:58:29.173Z,8.47
2019-03-26T10:00:58.820Z,7.97
2019-03-26T10:03:28.416Z,9.07
2019-03-26T10:05:59.123Z,9.57
2019-03-26T10:08:28.855Z,9.67
2019-03-26T10:10:58.590Z,10.37
2019-03-26T10:13:28.193Z,9.33
2019-03-26T10:15:57.835Z,8.17
2019-03-26T10:18:27.471Z,8.53
2019-03-26T10:20:57.143Z,7.83
2019-03-26T10:23:26.910Z,8.23
2019-03-26T10:25:56.503Z,7.47
2019-03-26T10:28:26.069Z,7.50
2019-03-26T10:30:55.716Z,7.50
2019-03-26T10:33:25.301Z,7.40
2019-03-26T10:35:57.527Z,6.70
2019-03-26T10:38:27.141Z,7.10
2019-03-26T10:40:56.812Z,6.37
2019-03-26T10:43:26.485Z,5.87
2019-03-26T10:45:58.457Z,6.50
2019-03-26T10:48:28.195Z,6.00
2019-03-26T10:50:57.770Z,7.13
2019-03-26T10:53:27.361Z,6.73
2019-03-26T10:55:57.151Z,6.87
2019-03-26T10:58:26.858Z,6.63
2019-03-26T11:00:56.583Z,7.97
2019-03-26T11:03:27.837Z,6.80
2019-03-26T11:05:57.460Z,7.33
2019-03-26T11:08:27.108Z,6.83
2019-03-26T11:10:57.005Z,6.93
2019-03-26T11:13:26.676Z,7.30
2019-03-26T11:15:56.387Z,5.90
2019-03-26T11:18:26.285Z,5.97
2019-03-26T11:21:02.668Z,7.60
2019-03-26T11:23:27.316Z,5.93
2019-03-26T11:25:57.046Z,6.90
2019-03-26T11:28:26.718Z,9.40
2019-03-26T11:30:56.497Z,9.60
2019-03-26T11:33:26.350Z,7.93
2019-03-26T11:35:56.093Z,5.90
2019-03-26T11:38:25.667Z,5.83
2019-03-26T11:40:55.404Z,5.00
2019-03-26T11:43:25.043Z,4.30
2019-03-26T11:45:54.696Z,4.23
2019-03-26T11:48:24.438Z,3.50
2019-03-26T11:50:54.178Z,3.67
2019-03-26T11:53:23.891Z,3.30
2019-03-26T11:55:53.610Z,2.93
2019-03-26T11:58:30.337Z,3.20
2019-03-26T12:00:54.657Z,3.13
2019-03-26T12:03:24.398Z,3.57
2019-03-26T12:05:54.017Z,3.87
2019-03-26T12:08:23.910Z,3.30
2019-03-26T12:10:53.711Z,3.53
2019-03-26T12:13:23.375Z,3.80
2019-03-26T12:15:53.226Z,3.57
2019-03-26T12:18:22.781Z,3.47
2019-03-26T12:20:52.496Z,3.20
2019-03-26T12:23:22.380Z,3.23
2019-03-26T12:25:51.977Z,3.40
2019-03-26T12:28:21.568Z,3.97
2019-03-26T12:30:51.291Z,4.30
2019-03-26T12:33:20.987Z,4.83
2019-03-26T12:35:50.711Z,3.70
2019-03-26T12:38:21.102Z,3.97
2019-03-26T12:40:51.102Z,4.07
2019-03-26T12:43:20.756Z,3.77
2019-03-26T12:45:50.469Z,3.83
2019-03-26T12:48:20.142Z,4.23
2019-03-26T12:50:49.750Z,5.00
2019-03-26T12:53:19.464Z,5.17
2019-03-26T12:55:49.207Z,3.90
2019-03-26T12:58:31.091Z,4.40
2019-03-26T13:00:50.243Z,3.83
2019-03-26T13:03:19.785Z,4.17
2019-03-26T13:05:49.406Z,4.30
2019-03-26T13:08:20.128Z,4.97
2019-03-26T13:10:53.901Z,3.50
2019-03-26T13:13:21.375Z,3.40
2019-03-26T13:15:51.077Z,3.53
2019-03-26T13:18:20.661Z,3.67
2019-03-26T13:20:50.346Z,3.40
2019-03-26T13:23:19.992Z,3.13
2019-03-26T13:25:49.759Z,3.40
2019-03-26T13:28:19.321Z,3.00
2019-03-26T13:30:48.967Z,2.97
2019-03-26T13:33:18.523Z,2.40
2019-03-26T13:35:48.195Z,2.40
2019-03-26T13:38:17.812Z,2.00
2019-03-26T13:40:47.505Z,1.50
2019-03-26T13:43:17.152Z,2.27
2019-03-26T13:45:46.937Z,2.20
2019-03-26T13:48:16.596Z,2.07
2019-03-26T13:50:46.177Z,2.30
2019-03-26T13:53:15.820Z,2.50
2019-03-26T13:55:45.574Z,2.50
2019-03-26T13:58:15.142Z,3.07
2019-03-26T14:00:44.753Z,2.60
2019-03-26T14:03:14.503Z,3.27
2019-03-26T14:05:44.110Z,2.00
2019-03-26T14:08:13.780Z,2.43
2019-03-26T14:10:43.470Z,2.23
2019-03-26T14:13:13.156Z,2.50
2019-03-26T14:15:42.756Z,2.17
2019-03-26T14:18:12.455Z,2.23
2019-03-26T14:20:42.048Z,2.93
2019-03-26T14:23:11.717Z,3.10
2019-03-26T14:25:41.368Z,2.40
2019-03-26T14:28:11.027Z,2.63
2019-03-26T14:30:42.313Z,2.37
2019-03-26T14:33:11.900Z,2.37
2019-03-26T14:35:41.512Z,2.80
2019-03-26T14:38:11.108Z,2.67
2019-03-26T14:40:53.527Z,2.60
2019-03-26T14:43:14.348Z,3.10
2019-03-26T14:45:43.994Z,3.20
2019-03-26T14:48:13.604Z,2.97
2019-03-26T14:50:43.264Z,2.70
2019-03-26T14:53:12.841Z,3.20
2019-03-26T14:55:42.443Z,2.60
2019-03-26T14:58:12.024Z,3.23
2019-03-26T15:00:41.689Z,3.27
2019-03-26T15:03:11.304Z,3.73
2019-03-26T15:05:40.968Z,3.83
2019-03-26T15:08:10.562Z,3.60
2019-03-26T15:10:40.289Z,2.83
2019-03-26T15:13:09.909Z,4.10
2019-03-26T15:15:39.619Z,4.07
2019-03-26T15:18:12.265Z,4.10
2019-03-26T15:20:41.918Z,3.30
2019-03-26T15:23:11.546Z,4.03
2019-03-26T15:25:41.203Z,4.70
2019-03-26T15:28:11.935Z,3.60
2019-03-26T15:30:41.776Z,4.70
2019-03-26T15:36:48.441Z,5.17
2019-03-26T15:50:38.976Z,4.00
2019-03-26T15:53:09.571Z,4.00
2019-03-26T15:56:28.290Z,4.97
2019-03-26T15:59:08.378Z,3.97
2019-03-26T16:01:38.282Z,3.73
2019-03-26T16:04:25.292Z,4.33
2019-03-26T16:07:00.136Z,4.27
2019-03-26T16:09:32.635Z,4.67
2019-03-26T16:12:09.455Z,4.60
2019-03-26T16:14:43.723Z,4.10
2019-03-26T16:17:14.002Z,4.23
2019-03-26T16:19:54.938Z,4.60
2019-03-26T16:25:36.168Z,4.40
2019-03-26T16:28:23.835Z,4.10
2019-03-26T16:31:21.516Z,4.40
2019-03-26T16:34:09.834Z,4.13
2019-03-26T16:37:18.855Z,4.30
2019-03-26T16:40:26.168Z,4.87
2019-03-26T16:43:20.313Z,4.77
2019-03-26T16:46:19.209Z,4.80
2019-03-26T16:49:13.147Z,4.80
2019-03-26T16:52:19.922Z,3.87
2019-03-26T16:55:18.021Z,4.80
2019-03-26T16:58:10.411Z,5.30
2019-03-26T17:00:48.529Z,4.50
2019-03-26T17:03:43.475Z,4.50
2019-03-26T17:06:40.203Z,5.07
2019-03-26T17:09:49.145Z,4.70
2019-03-26T17:12:37.737Z,4.53
2019-03-26T17:15:21.600Z,4.63
2019-03-26T17:18:00.007Z,4.13
2019-03-26T17:24:34.609Z,5.00
2019-03-26T17:27:35.342Z,5.33
2019-03-26T17:30:24.715Z,4.90
2019-03-26T17:33:25.452Z,5.77
2019-03-26T17:36:38.468Z,4.40
2019-03-26T17:39:38.318Z,5.93
2019-03-26T17:42:20.001Z,5.47
2019-03-26T17:48:09.565Z,4.70
2019-03-26T17:51:08.997Z,5.20
2019-03-26T17:53:59.526Z,5.03
2019-03-26T17:56:56.954Z,4.93
2019-03-26T17:59:53.733Z,5.00
2019-03-26T18:02:45.290Z,4.40
2019-03-26T18:05:51.224Z,4.87
2019-03-26T18:08:42.456Z,4.37
2019-03-26T18:11:43.336Z,4.00
2019-03-26T18:14:51.394Z,4.53
2019-03-26T18:17:47.799Z,4.67
2019-03-26T18:20:56.677Z,5.70
2019-03-26T18:23:42.174Z,4.50
2019-03-26T18:26:47.179Z,4.50
2019-03-26T18:29:39.172Z,4.33
2019-03-26T18:32:53.870Z,4.23
2019-03-26T18:36:17.882Z,4.30
2019-03-26T18:45:20.480Z,4.23
2019-03-26T18:48:09.325Z,4.20
2019-03-26T18:51:03.915Z,4.57
2019-03-26T18:53:45.974Z,4.43
2019-03-26T18:57:25.373Z,5.10
2019-03-26T19:00:22.155Z,5.10
2019-03-26T19:06:44.334Z,4.90
2019-03-26T19:09:21.177Z,5.73
2019-03-26T19:12:40.861Z,4.33
2019-03-26T19:16:02.828Z,5.47
2019-03-26T19:18:36.201Z,5.27
2019-03-26T19:21:06.180Z,4.93
2019-03-26T19:27:22.416Z,4.47
2019-03-26T19:30:23.990Z,5.97
2019-03-26T19:32:49.941Z,5.53
2019-03-26T19:35:40.733Z,4.87
2019-03-26T19:38:28.456Z,5.10
2019-03-26T19:41:18.561Z,4.83
2019-03-26T19:43:48.763Z,5.03
2019-03-26T19:46:20.351Z,5.07
2019-03-26T19:48:50.862Z,4.30
2019-03-26T19:51:20.689Z,4.40
2019-03-26T19:53:50.656Z,4.67
2019-03-26T19:56:20.445Z,3.93
2019-03-26T19:58:50.935Z,4.03
2019-03-26T20:01:20.841Z,4.60
2019-03-26T20:04:06.227Z,5.13
2019-03-26T20:06:40.128Z,4.40
2019-03-26T20:09:10.002Z,4.50
2019-03-26T20:11:39.716Z,4.47
2019-03-26T20:14:09.552Z,4.07
2019-03-26T20:16:46.667Z,4.97
2019-03-26T20:19:17.110Z,4.73
2019-03-26T20:22:15.832Z,5.00
2019-03-26T20:24:47.549Z,4.17
2019-03-26T20:27:21.285Z,5.17
2019-03-26T20:29:52.695Z,5.40
2019-03-26T20:32:23.981Z,4.73
2019-03-26T20:34:55.130Z,4.80
2019-03-26T20:37:27.080Z,4.40
2019-03-26T20:39:58.587Z,5.00
2019-03-26T20:42:29.145Z,4.70
2019-03-26T20:45:00.365Z,5.43
2019-03-26T20:47:34.853Z,4.40
2019-03-26T20:50:30.213Z,4.57
2019-03-26T20:53:00.472Z,5.10
2019-03-26T20:55:36.812Z,4.87
2019-03-26T20:58:07.179Z,4.43
2019-03-26T21:00:45.359Z,4.33
2019-03-26T21:03:15.963Z,5.30
2019-03-26T21:05:46.432Z,4.60
2019-03-26T21:08:18.636Z,4.90
2019-03-26T21:10:49.739Z,5.40
2019-03-26T21:13:20.117Z,6.30
2019-03-26T21:15:57.054Z,5.43
2019-03-26T21:18:23.650Z,4.97
2019-03-26T21:21:25.658Z,5.70
2019-03-26T21:24:10.414Z,5.57
2019-03-26T21:26:40.967Z,4.67
2019-03-26T21:29:11.471Z,5.40
2019-03-26T21:31:41.878Z,5.57
2019-03-26T21:34:12.400Z,5.30
2019-03-26T21:39:30.339Z,6.03
2019-03-26T21:42:00.203Z,6.13
2019-03-26T21:44:29.959Z,5.10
2019-03-26T21:46:59.827Z,5.97
2019-03-26T21:49:29.638Z,6.63
2019-03-26T21:51:59.572Z,6.60
2019-03-26T21:54:29.462Z,6.80
2019-03-26T21:56:59.428Z,6.17
2019-03-26T21:59:29.219Z,6.13
2019-03-26T22:01:59.065Z,6.57
2019-03-26T22:04:28.916Z,6.57
2019-03-26T22:06:58.660Z,7.07
2019-03-26T22:09:28.762Z,7.40
2019-03-26T22:11:58.503Z,7.90
2019-03-26T22:14:28.245Z,7.47
2019-03-26T22:16:58.084Z,7.43
2019-03-26T22:19:29.043Z,7.20
2019-03-26T22:21:58.980Z,6.80
2019-03-26T22:24:28.763Z,7.60
2019-03-26T22:26:58.876Z,6.70
2019-03-26T22:29:28.642Z,7.50
2019-03-26T22:31:58.467Z,8.00
2019-03-26T22:34:28.207Z,7.67
2019-03-26T22:36:57.929Z,7.03
2019-03-26T22:39:27.730Z,8.03
2019-03-26T22:41:57.633Z,7.27
2019-03-26T22:44:31.688Z,7.20
2019-03-26T22:46:58.824Z,7.77
2019-03-26T22:49:28.682Z,8.47
2019-03-26T22:51:58.633Z,8.47
2019-03-26T22:54:28.356Z,7.63
2019-03-26T22:56:58.989Z,8.80
2019-03-26T22:59:28.735Z,8.23
2019-03-26T23:01:58.473Z,8.83
2019-03-26T23:04:28.235Z,8.40
2019-03-26T23:06:58.012Z,9.03
2019-03-26T23:09:27.707Z,7.57
2019-03-26T23:11:57.568Z,8.73
2019-03-26T23:14:28.146Z,7.97
2019-03-26T23:16:57.898Z,9.03
2019-03-26T23:19:27.609Z,9.13
2019-03-26T23:21:57.319Z,7.83
2019-03-26T23:24:27.084Z,8.70
2019-03-26T23:26:56.816Z,7.83
2019-03-26T23:29:26.473Z,8.53
2019-03-26T23:31:56.169Z,7.87
2019-03-26T23:34:25.874Z,9.37
2019-03-26T23:36:55.606Z,9.03
2019-03-26T23:39:25.315Z,8.13
2019-03-26T23:41:55.104Z,9.30
2019-03-26T23:44:26.026Z,8.40
2019-03-26T23:46:55.958Z,7.23
2019-03-26T23:49:25.718Z,9.07
2019-03-26T23:51:55.390Z,8.10
2019-03-26T23:54:25.085Z,8.87
2019-03-26T23:56:54.800Z,8.33
2019-03-26T23:59:24.502Z,9.07
